sensor_id;sensor_type;location;lat;lon;timestamp;pressure;altitude;pressure_sealevel;temperature;humidity
35435;BME280;21556;55.782;37.528;2023-05-09T00:00:44;101285.25;;;8.71;100.00
35435;BME280;21556;55.782;37.528;2023-05-09T00:03:10;101282.72;;;8.73;100.00
35435;BME280;21556;55.782;37.528;2023-05-09T00:05:37;101290.19;;;8.65;100.00
35435;BME280;21556;55.782;37.528;2023-05-09T00:08:03;101288.13;;;8.76;100.00
35435;BME280;21556;55.782;37.528;2023-05-09T00:10:32;101288.34;;;8.80;100.00
35435;BME280;21556;55.782;37.528;2023-05-09T00:12:58;101282.25;;;8.63;100.00
35435;BME280;21556;55.782;37.528;2023-05-09T00:15:25;101286.00;;;8.51;100.00
35435;BME280;21556;55.782;37.528;2023-05-09T00:17:51;101288.38;;;8.64;100.00
35435;BME280;21556;55.782;37.528;2023-05-09T00:20:17;101283.16;;;8.64;100.00
35435;BME280;21556;55.782;37.528;2023-05-09T00:22:44;101294.53;;;8.64;100.00
35435;BME280;21556;55.782;37.528;2023-05-09T00:25:10;101285.34;;;8.90;100.00
35435;BME280;21556;55.782;37.528;2023-05-09T00:27:36;101290.13;;;8.81;100.00
35435;BME280;21556;55.782;37.528;2023-05-09T00:30:04;101295.19;;;8.78;100.00
35435;BME280;21556;55.782;37.528;2023-05-09T00:32:32;101293.50;;;8.61;100.00
35435;BME280;21556;55.782;37.528;2023-05-09T00:34:57;101290.72;;;8.58;100.00
35435;BME280;21556;55.782;37.528;2023-05-09T00:37:23;101287.13;;;8.74;100.00
35435;BME280;21556;55.782;37.528;2023-05-09T00:39:50;101285.84;;;8.48;100.00
35435;BME280;21556;55.782;37.528;2023-05-09T00:42:15;101289.56;;;8.53;100.00
35435;BME280;21556;55.782;37.528;2023-05-09T00:44:41;101296.97;;;8.27;100.00
35435;BME280;21556;55.782;37.528;2023-05-09T00:47:07;101292.91;;;8.16;100.00
35435;BME280;21556;55.782;37.528;2023-05-09T00:49:33;101297.84;;;8.10;100.00
35435;BME280;21556;55.782;37.528;2023-05-09T00:52:01;101301.41;;;8.12;100.00
35435;BME280;21556;55.782;37.528;2023-05-09T00:54:28;101302.75;;;8.04;100.00
35435;BME280;21556;55.782;37.528;2023-05-09T00:56:54;101304.56;;;7.88;100.00
35435;BME280;21556;55.782;37.528;2023-05-09T00:59:20;101301.09;;;7.73;100.00
35435;BME280;21556;55.782;37.528;2023-05-09T01:01:46;101307.97;;;7.71;100.00
35435;BME280;21556;55.782;37.528;2023-05-09T01:04:13;101310.50;;;7.86;100.00
35435;BME280;21556;55.782;37.528;2023-05-09T01:07:01;101308.34;;;7.95;100.00
35435;BME280;21556;55.782;37.528;2023-05-09T01:09:46;101305.69;;;7.93;100.00
35435;BME280;21556;55.782;37.528;2023-05-09T01:15:30;101309.88;;;7.74;100.00
35435;BME280;21556;55.782;37.528;2023-05-09T01:18:11;101308.84;;;7.88;100.00
35435;BME280;21556;55.782;37.528;2023-05-09T01:20:41;101307.63;;;7.65;100.00
35435;BME280;21556;55.782;37.528;2023-05-09T01:26:08;101303.72;;;7.57;100.00
35435;BME280;21556;55.782;37.528;2023-05-09T01:31:16;101305.09;;;7.50;100.00
35435;BME280;21556;55.782;37.528;2023-05-09T01:33:43;101302.50;;;7.50;100.00
35435;BME280;21556;55.782;37.528;2023-05-09T01:36:14;101302.41;;;7.65;100.00
35435;BME280;21556;55.782;37.528;2023-05-09T01:38:42;101307.63;;;7.65;100.00
35435;BME280;21556;55.782;37.528;2023-05-09T01:41:09;101313.38;;;7.74;100.00
35435;BME280;21556;55.782;37.528;2023-05-09T01:43:37;101310.16;;;7.47;100.00
35435;BME280;21556;55.782;37.528;2023-05-09T01:46:05;101307.66;;;7.48;100.00
35435;BME280;21556;55.782;37.528;2023-05-09T01:48:33;101310.19;;;7.63;100.00
35435;BME280;21556;55.782;37.528;2023-05-09T01:51:01;101311.81;;;7.61;100.00
35435;BME280;21556;55.782;37.528;2023-05-09T01:53:29;101314.25;;;7.42;100.00
35435;BME280;21556;55.782;37.528;2023-05-09T01:55:58;101312.94;;;7.34;100.00
35435;BME280;21556;55.782;37.528;2023-05-09T01:58:25;101310.50;;;7.22;100.00
35435;BME280;21556;55.782;37.528;2023-05-09T02:00:52;101307.06;;;7.38;100.00
35435;BME280;21556;55.782;37.528;2023-05-09T02:03:19;101303.38;;;7.34;100.00
35435;BME280;21556;55.782;37.528;2023-05-09T02:05:47;101309.34;;;7.48;100.00
35435;BME280;21556;55.782;37.528;2023-05-09T02:08:15;101311.47;;;7.55;100.00
35435;BME280;21556;55.782;37.528;2023-05-09T02:10:43;101316.78;;;7.57;100.00
35435;BME280;21556;55.782;37.528;2023-05-09T02:13:09;101312.88;;;7.97;100.00
35435;BME280;21556;55.782;37.528;2023-05-09T02:15:36;101311.34;;;7.85;100.00
35435;BME280;21556;55.782;37.528;2023-05-09T02:18:03;101318.78;;;7.77;100.00
35435;BME280;21556;55.782;37.528;2023-05-09T02:20:29;101312.59;;;7.44;100.00
35435;BME280;21556;55.782;37.528;2023-05-09T02:22:55;101309.88;;;7.26;100.00
35435;BME280;21556;55.782;37.528;2023-05-09T02:25:21;101315.59;;;7.19;100.00
35435;BME280;21556;55.782;37.528;2023-05-09T02:27:48;101311.97;;;7.17;100.00
35435;BME280;21556;55.782;37.528;2023-05-09T02:30:18;101313.59;;;7.15;100.00
35435;BME280;21556;55.782;37.528;2023-05-09T02:32:51;101322.91;;;7.26;100.00
35435;BME280;21556;55.782;37.528;2023-05-09T02:35:18;101320.06;;;7.21;100.00
35435;BME280;21556;55.782;37.528;2023-05-09T02:37:48;101319.88;;;7.66;100.00
35435;BME280;21556;55.782;37.528;2023-05-09T02:40:14;101323.78;;;7.58;100.00
35435;BME280;21556;55.782;37.528;2023-05-09T02:42:40;101326.41;;;7.41;100.00
35435;BME280;21556;55.782;37.528;2023-05-09T02:45:06;101326.72;;;7.47;100.00
35435;BME280;21556;55.782;37.528;2023-05-09T02:47:34;101323.50;;;7.52;100.00
35435;BME280;21556;55.782;37.528;2023-05-09T02:50:00;101322.06;;;7.42;100.00
35435;BME280;21556;55.782;37.528;2023-05-09T02:52:30;101325.22;;;7.36;100.00
35435;BME280;21556;55.782;37.528;2023-05-09T02:54:56;101326.66;;;7.46;100.00
35435;BME280;21556;55.782;37.528;2023-05-09T02:57:22;101322.06;;;7.58;100.00
35435;BME280;21556;55.782;37.528;2023-05-09T02:59:48;101324.41;;;7.85;100.00
35435;BME280;21556;55.782;37.528;2023-05-09T03:02:13;101333.13;;;7.85;100.00
35435;BME280;21556;55.782;37.528;2023-05-09T03:04:40;101329.94;;;8.07;100.00
35435;BME280;21556;55.782;37.528;2023-05-09T03:07:07;101335.81;;;7.87;100.00
35435;BME280;21556;55.782;37.528;2023-05-09T03:09:33;101331.66;;;7.90;100.00
35435;BME280;21556;55.782;37.528;2023-05-09T03:11:59;101338.19;;;7.82;100.00
35435;BME280;21556;55.782;37.528;2023-05-09T03:14:25;101337.13;;;7.79;100.00
35435;BME280;21556;55.782;37.528;2023-05-09T03:16:51;101335.66;;;7.84;100.00
35435;BME280;21556;55.782;37.528;2023-05-09T03:19:24;101337.53;;;7.86;100.00
35435;BME280;21556;55.782;37.528;2023-05-09T03:21:50;101338.00;;;8.12;100.00
35435;BME280;21556;55.782;37.528;2023-05-09T03:24:16;101336.63;;;8.02;100.00
35435;BME280;21556;55.782;37.528;2023-05-09T03:26:42;101336.47;;;8.15;100.00
35435;BME280;21556;55.782;37.528;2023-05-09T03:29:08;101346.50;;;8.40;100.00
35435;BME280;21556;55.782;37.528;2023-05-09T03:31:34;101341.59;;;8.47;100.00
35435;BME280;21556;55.782;37.528;2023-05-09T03:34:01;101334.63;;;8.31;100.00
35435;BME280;21556;55.782;37.528;2023-05-09T03:36:27;101337.53;;;8.53;100.00
35435;BME280;21556;55.782;37.528;2023-05-09T03:38:56;101343.19;;;8.61;100.00
35435;BME280;21556;55.782;37.528;2023-05-09T03:41:22;101346.53;;;8.58;100.00
35435;BME280;21556;55.782;37.528;2023-05-09T03:43:48;101348.75;;;6.61;100.00
35435;BME280;21556;55.782;37.528;2023-05-09T03:46:14;101347.91;;;8.17;100.00
35435;BME280;21556;55.782;37.528;2023-05-09T03:48:44;101350.72;;;8.55;100.00
35435;BME280;21556;55.782;37.528;2023-05-09T03:51:10;101332.50;;;8.74;100.00
35435;BME280;21556;55.782;37.528;2023-05-09T03:53:38;101339.78;;;8.80;100.00
35435;BME280;21556;55.782;37.528;2023-05-09T03:56:05;101343.19;;;8.97;100.00
35435;BME280;21556;55.782;37.528;2023-05-09T03:58:38;101347.03;;;9.03;100.00
35435;BME280;21556;55.782;37.528;2023-05-09T04:01:05;101348.28;;;9.29;100.00
35435;BME280;21556;55.782;37.528;2023-05-09T04:03:31;101342.66;;;9.39;99.54
35435;BME280;21556;55.782;37.528;2023-05-09T04:05:57;101344.16;;;9.52;97.02
35435;BME280;21556;55.782;37.528;2023-05-09T04:08:29;101340.81;;;9.74;94.91
35435;BME280;21556;55.782;37.528;2023-05-09T04:10:55;101345.34;;;9.78;90.06
35435;BME280;21556;55.782;37.528;2023-05-09T04:13:22;101346.34;;;9.80;90.01
35435;BME280;21556;55.782;37.528;2023-05-09T04:15:49;101345.84;;;9.89;89.24
35435;BME280;21556;55.782;37.528;2023-05-09T04:18:15;101344.88;;;10.06;87.96
35435;BME280;21556;55.782;37.528;2023-05-09T04:20:41;101350.13;;;10.06;87.98
35435;BME280;21556;55.782;37.528;2023-05-09T04:23:07;101347.34;;;10.23;85.03
35435;BME280;21556;55.782;37.528;2023-05-09T04:25:33;101348.03;;;10.38;81.86
35435;BME280;21556;55.782;37.528;2023-05-09T04:28:00;101345.78;;;10.46;83.46
35435;BME280;21556;55.782;37.528;2023-05-09T04:30:27;101343.47;;;10.74;76.39
35435;BME280;21556;55.782;37.528;2023-05-09T04:32:54;101340.25;;;10.81;76.35
35435;BME280;21556;55.782;37.528;2023-05-09T04:35:21;101338.91;;;10.91;71.67
35435;BME280;21556;55.782;37.528;2023-05-09T04:37:49;101344.75;;;11.05;69.26
35435;BME280;21556;55.782;37.528;2023-05-09T04:40:16;101344.38;;;11.18;68.62
35435;BME280;21556;55.782;37.528;2023-05-09T04:42:49;101343.91;;;11.28;66.61
35435;BME280;21556;55.782;37.528;2023-05-09T04:45:19;101341.00;;;11.43;61.50
35435;BME280;21556;55.782;37.528;2023-05-09T04:47:45;101347.41;;;11.50;58.90
35435;BME280;21556;55.782;37.528;2023-05-09T04:50:11;101337.13;;;11.56;57.12
35435;BME280;21556;55.782;37.528;2023-05-09T04:52:37;101340.16;;;11.67;55.34
35435;BME280;21556;55.782;37.528;2023-05-09T04:55:03;101333.34;;;11.72;54.44
35435;BME280;21556;55.782;37.528;2023-05-09T04:57:36;101335.09;;;11.71;52.28
35435;BME280;21556;55.782;37.528;2023-05-09T05:00:05;101344.41;;;11.86;50.86
35435;BME280;21556;55.782;37.528;2023-05-09T05:02:32;101339.78;;;12.02;49.48
35435;BME280;21556;55.782;37.528;2023-05-09T05:04:58;101333.44;;;11.97;47.98
35435;BME280;21556;55.782;37.528;2023-05-09T05:07:26;101332.91;;;12.06;46.24
35435;BME280;21556;55.782;37.528;2023-05-09T05:09:52;101341.31;;;11.73;48.01
35435;BME280;21556;55.782;37.528;2023-05-09T05:12:18;101336.09;;;12.21;45.00
35435;BME280;21556;55.782;37.528;2023-05-09T05:14:44;101335.47;;;12.28;43.86
35435;BME280;21556;55.782;37.528;2023-05-09T05:17:16;101330.59;;;12.15;43.29
35435;BME280;21556;55.782;37.528;2023-05-09T05:19:44;101330.63;;;12.41;43.71
35435;BME280;21556;55.782;37.528;2023-05-09T05:22:11;101327.50;;;12.52;42.89
35435;BME280;21556;55.782;37.528;2023-05-09T05:24:39;101322.44;;;12.57;42.37
35435;BME280;21556;55.782;37.528;2023-05-09T05:27:05;101324.44;;;12.64;42.19
35435;BME280;21556;55.782;37.528;2023-05-09T05:29:31;101323.31;;;12.83;41.69
35435;BME280;21556;55.782;37.528;2023-05-09T05:31:57;101325.53;;;12.98;42.50
35435;BME280;21556;55.782;37.528;2023-05-09T05:34:23;101320.09;;;13.20;40.21
35435;BME280;21556;55.782;37.528;2023-05-09T05:36:49;101322.25;;;13.05;38.81
35435;BME280;21556;55.782;37.528;2023-05-09T05:39:15;101317.47;;;13.20;39.23
35435;BME280;21556;55.782;37.528;2023-05-09T05:41:41;101314.41;;;13.34;38.31
35435;BME280;21556;55.782;37.528;2023-05-09T05:44:07;101321.63;;;13.12;38.43
35435;BME280;21556;55.782;37.528;2023-05-09T05:46:34;101311.78;;;13.62;35.97
35435;BME280;21556;55.782;37.528;2023-05-09T05:49:00;101307.44;;;13.94;35.94
35435;BME280;21556;55.782;37.528;2023-05-09T05:51:27;101298.28;;;13.83;34.71
35435;BME280;21556;55.782;37.528;2023-05-09T05:53:53;101294.34;;;14.31;34.19
35435;BME280;21556;55.782;37.528;2023-05-09T05:56:20;101294.91;;;14.52;34.01
35435;BME280;21556;55.782;37.528;2023-05-09T05:58:48;101290.19;;;14.40;33.26
35435;BME280;21556;55.782;37.528;2023-05-09T06:01:14;101291.16;;;14.44;33.36
35435;BME280;21556;55.782;37.528;2023-05-09T06:03:40;101298.81;;;14.66;32.74
35435;BME280;21556;55.782;37.528;2023-05-09T06:06:06;101288.84;;;14.89;32.06
35435;BME280;21556;55.782;37.528;2023-05-09T06:08:32;101278.78;;;15.12;32.11
35435;BME280;21556;55.782;37.528;2023-05-09T06:10:59;101284.81;;;15.46;31.84
35435;BME280;21556;55.782;37.528;2023-05-09T06:13:25;101293.16;;;15.24;31.13
35435;BME280;21556;55.782;37.528;2023-05-09T06:15:57;101282.56;;;15.24;30.29
35435;BME280;21556;55.782;37.528;2023-05-09T06:18:23;101282.25;;;15.49;31.37
35435;BME280;21556;55.782;37.528;2023-05-09T06:20:49;101265.91;;;15.66;29.48
35435;BME280;21556;55.782;37.528;2023-05-09T06:23:15;101269.13;;;15.95;29.95
35435;BME280;21556;55.782;37.528;2023-05-09T06:25:47;101255.91;;;15.96;28.87
35435;BME280;21556;55.782;37.528;2023-05-09T06:28:14;101265.34;;;15.82;28.88
35435;BME280;21556;55.782;37.528;2023-05-09T06:30:40;101253.59;;;16.13;29.16
35435;BME280;21556;55.782;37.528;2023-05-09T06:33:09;101256.31;;;16.16;29.28
35435;BME280;21556;55.782;37.528;2023-05-09T06:35:35;101254.41;;;16.10;29.08
35435;BME280;21556;55.782;37.528;2023-05-09T06:38:01;101254.41;;;16.10;28.75
35435;BME280;21556;55.782;37.528;2023-05-09T06:40:27;101252.09;;;16.29;28.08
35435;BME280;21556;55.782;37.528;2023-05-09T06:42:54;101239.31;;;16.55;28.24
35435;BME280;21556;55.782;37.528;2023-05-09T06:45:20;101240.34;;;16.13;28.16
35435;BME280;21556;55.782;37.528;2023-05-09T06:47:46;101240.28;;;16.10;27.87
35435;BME280;21556;55.782;37.528;2023-05-09T06:50:12;101245.31;;;15.95;28.42
35435;BME280;21556;55.782;37.528;2023-05-09T06:52:38;101240.19;;;16.55;28.54
35435;BME280;21556;55.782;37.528;2023-05-09T06:55:04;101234.66;;;16.95;27.40
35435;BME280;21556;55.782;37.528;2023-05-09T06:57:33;101226.66;;;16.89;27.45
35435;BME280;21556;55.782;37.528;2023-05-09T06:59:59;101217.53;;;17.33;27.88
35435;BME280;21556;55.782;37.528;2023-05-09T07:02:26;101219.75;;;16.45;26.79
35435;BME280;21556;55.782;37.528;2023-05-09T07:04:52;101217.69;;;17.44;26.61
35435;BME280;21556;55.782;37.528;2023-05-09T07:07:18;101212.47;;;16.88;26.40
35435;BME280;21556;55.782;37.528;2023-05-09T07:09:44;101207.72;;;17.28;25.99
35435;BME280;21556;55.782;37.528;2023-05-09T07:12:10;101201.38;;;18.86;24.43
35435;BME280;21556;55.782;37.528;2023-05-09T07:14:35;101189.38;;;19.63;23.95
35435;BME280;21556;55.782;37.528;2023-05-09T07:17:01;101170.81;;;20.85;22.00
35435;BME280;21556;55.782;37.528;2023-05-09T07:19:28;101177.91;;;20.88;22.81
35435;BME280;21556;55.782;37.528;2023-05-09T07:21:53;101181.25;;;19.38;23.48
35435;BME280;21556;55.782;37.528;2023-05-09T07:24:20;101175.22;;;20.96;22.49
35435;BME280;21556;55.782;37.528;2023-05-09T07:26:46;101188.00;;;18.76;23.51
35435;BME280;21556;55.782;37.528;2023-05-09T07:29:12;101170.63;;;19.44;22.58
35435;BME280;21556;55.782;37.528;2023-05-09T07:31:38;101176.97;;;19.74;23.32
35435;BME280;21556;55.782;37.528;2023-05-09T07:34:04;101169.81;;;21.17;23.09
35435;BME280;21556;55.782;37.528;2023-05-09T07:36:30;101175.09;;;19.52;23.32
35435;BME280;21556;55.782;37.528;2023-05-09T07:38:58;101186.00;;;17.60;24.25
35435;BME280;21556;55.782;37.528;2023-05-09T07:41:23;101177.63;;;18.00;23.73
35435;BME280;21556;55.782;37.528;2023-05-09T07:43:49;101179.81;;;17.61;25.32
35435;BME280;21556;55.782;37.528;2023-05-09T07:46:16;101187.25;;;17.15;25.73
35435;BME280;21556;55.782;37.528;2023-05-09T07:48:43;101195.44;;;15.71;26.48
35435;BME280;21556;55.782;37.528;2023-05-09T07:51:09;101191.63;;;16.03;26.49
35435;BME280;21556;55.782;37.528;2023-05-09T07:53:36;101197.91;;;16.08;26.62
35435;BME280;21556;55.782;37.528;2023-05-09T07:56:02;101184.63;;;17.92;24.44
35435;BME280;21556;55.782;37.528;2023-05-09T07:58:28;101169.63;;;19.10;23.25
35435;BME280;21556;55.782;37.528;2023-05-09T08:00:55;101151.28;;;20.66;21.16
35435;BME280;21556;55.782;37.528;2023-05-09T08:03:21;101138.63;;;21.27;21.24
35435;BME280;21556;55.782;37.528;2023-05-09T08:05:47;101124.63;;;20.60;21.02
35435;BME280;21556;55.782;37.528;2023-05-09T08:08:13;101131.50;;;21.39;20.63
35435;BME280;21556;55.782;37.528;2023-05-09T08:10:39;101129.72;;;21.37;19.64
35435;BME280;21556;55.782;37.528;2023-05-09T08:13:05;101118.31;;;22.37;19.24
35435;BME280;21556;55.782;37.528;2023-05-09T08:15:31;101120.34;;;22.11;20.14
35435;BME280;21556;55.782;37.528;2023-05-09T08:17:57;101103.94;;;22.50;18.85
35435;BME280;21556;55.782;37.528;2023-05-09T08:20:23;101101.56;;;23.07;18.42
35435;BME280;21556;55.782;37.528;2023-05-09T08:22:49;101106.78;;;20.85;20.41
35435;BME280;21556;55.782;37.528;2023-05-09T08:25:15;101115.75;;;19.99;21.13
35435;BME280;21556;55.782;37.528;2023-05-09T08:27:42;101120.19;;;20.56;21.90
35435;BME280;21556;55.782;37.528;2023-05-09T08:30:09;101117.41;;;19.49;21.11
35435;BME280;21556;55.782;37.528;2023-05-09T08:32:35;101116.47;;;19.21;22.11
35435;BME280;21556;55.782;37.528;2023-05-09T08:35:01;101124.06;;;18.58;22.84
35435;BME280;21556;55.782;37.528;2023-05-09T08:37:29;101123.13;;;18.47;22.30
35435;BME280;21556;55.782;37.528;2023-05-09T08:39:56;101118.81;;;17.64;22.89
35435;BME280;21556;55.782;37.528;2023-05-09T08:42:22;101123.22;;;17.60;23.30
35435;BME280;21556;55.782;37.528;2023-05-09T08:44:51;101119.22;;;18.00;22.41
35435;BME280;21556;55.782;37.528;2023-05-09T08:47:17;101119.53;;;18.40;22.67
35435;BME280;21556;55.782;37.528;2023-05-09T08:49:46;101121.66;;;17.79;22.96
35435;BME280;21556;55.782;37.528;2023-05-09T08:52:13;101117.97;;;17.68;23.73
35435;BME280;21556;55.782;37.528;2023-05-09T08:54:40;101115.72;;;17.24;23.45
35435;BME280;21556;55.782;37.528;2023-05-09T08:57:06;101107.97;;;17.42;23.12
35435;BME280;21556;55.782;37.528;2023-05-09T08:59:33;101110.25;;;17.88;23.18
35435;BME280;21556;55.782;37.528;2023-05-09T09:02:07;101108.50;;;17.88;23.14
35435;BME280;21556;55.782;37.528;2023-05-09T09:04:34;101099.50;;;18.94;22.16
35435;BME280;21556;55.782;37.528;2023-05-09T09:07:03;101087.13;;;19.04;21.80
35435;BME280;21556;55.782;37.528;2023-05-09T09:09:32;101099.06;;;18.24;22.15
35435;BME280;21556;55.782;37.528;2023-05-09T09:12:04;101091.66;;;19.37;21.73
35435;BME280;21556;55.782;37.528;2023-05-09T09:14:35;101087.13;;;19.06;21.94
35435;BME280;21556;55.782;37.528;2023-05-09T09:17:04;101081.03;;;19.28;21.19
35435;BME280;21556;55.782;37.528;2023-05-09T09:19:32;101084.75;;;18.08;22.30
35435;BME280;21556;55.782;37.528;2023-05-09T09:22:02;101086.66;;;17.31;23.33
35435;BME280;21556;55.782;37.528;2023-05-09T09:24:36;101087.22;;;17.06;23.46
35435;BME280;21556;55.782;37.528;2023-05-09T09:27:06;101084.00;;;17.31;23.78
35435;BME280;21556;55.782;37.528;2023-05-09T09:29:33;101092.16;;;17.50;23.45
35435;BME280;21556;55.782;37.528;2023-05-09T09:32:04;101083.41;;;17.60;23.15
35435;BME280;21556;55.782;37.528;2023-05-09T09:34:33;101079.13;;;17.74;23.56
35435;BME280;21556;55.782;37.528;2023-05-09T09:36:59;101079.00;;;17.58;23.01
35435;BME280;21556;55.782;37.528;2023-05-09T09:39:25;101074.75;;;19.17;21.96
35435;BME280;21556;55.782;37.528;2023-05-09T09:41:52;101064.28;;;19.72;20.64
35435;BME280;21556;55.782;37.528;2023-05-09T09:44:20;101055.34;;;20.34;20.51
35435;BME280;21556;55.782;37.528;2023-05-09T09:46:52;101043.66;;;20.80;20.08
35435;BME280;21556;55.782;37.528;2023-05-09T09:49:25;101043.69;;;20.78;19.41
35435;BME280;21556;55.782;37.528;2023-05-09T09:51:53;101038.84;;;21.57;19.14
35435;BME280;21556;55.782;37.528;2023-05-09T09:54:20;101034.31;;;21.65;19.46
35435;BME280;21556;55.782;37.528;2023-05-09T09:56:50;101026.78;;;22.10;18.20
35435;BME280;21556;55.782;37.528;2023-05-09T09:59:23;101025.19;;;21.89;19.11
35435;BME280;21556;55.782;37.528;2023-05-09T10:01:54;101019.28;;;22.47;18.33
35435;BME280;21556;55.782;37.528;2023-05-09T10:04:23;101019.91;;;21.81;19.20
35435;BME280;21556;55.782;37.528;2023-05-09T10:06:58;101026.09;;;19.94;19.50
35435;BME280;21556;55.782;37.528;2023-05-09T10:09:26;101032.22;;;19.34;20.19
35435;BME280;21556;55.782;37.528;2023-05-09T10:11:56;101030.91;;;18.34;21.02
35435;BME280;21556;55.782;37.528;2023-05-09T10:14:54;101036.13;;;18.14;21.55
35435;BME280;21556;55.782;37.528;2023-05-09T10:17:30;101037.16;;;17.35;22.15
35435;BME280;21556;55.782;37.528;2023-05-09T10:20:06;101044.09;;;17.21;22.25
35435;BME280;21556;55.782;37.528;2023-05-09T10:22:37;101040.19;;;17.75;22.04
35435;BME280;21556;55.782;37.528;2023-05-09T10:25:36;101037.88;;;17.16;22.15
35435;BME280;21556;55.782;37.528;2023-05-09T10:28:10;101042.28;;;17.17;22.46
35435;BME280;21556;55.782;37.528;2023-05-09T10:31:41;101045.53;;;16.90;23.10
35435;BME280;21556;55.782;37.528;2023-05-09T10:33:47;101043.03;;;17.03;22.94
35435;BME280;21556;55.782;37.528;2023-05-09T10:36:20;101045.94;;;17.28;23.29
35435;BME280;21556;55.782;37.528;2023-05-09T10:39:25;101031.81;;;17.29;22.73
35435;BME280;21556;55.782;37.528;2023-05-09T10:42:21;101028.94;;;17.97;21.47
35435;BME280;21556;55.782;37.528;2023-05-09T10:45:04;101013.38;;;18.65;21.63
35435;BME280;21556;55.782;37.528;2023-05-09T10:48:01;101013.25;;;18.39;21.29
35435;BME280;21556;55.782;37.528;2023-05-09T10:50:30;101017.75;;;18.58;21.34
35435;BME280;21556;55.782;37.528;2023-05-09T10:53:08;101007.13;;;18.58;22.00
35435;BME280;21556;55.782;37.528;2023-05-09T10:55:57;101003.84;;;19.33;21.28
35435;BME280;21556;55.782;37.528;2023-05-09T10:58:33;101000.91;;;18.55;21.30
35435;BME280;21556;55.782;37.528;2023-05-09T11:01:03;100996.72;;;19.09;21.91
35435;BME280;21556;55.782;37.528;2023-05-09T11:03:55;101001.13;;;19.02;22.21
35435;BME280;21556;55.782;37.528;2023-05-09T11:06:48;100993.00;;;18.64;22.44
35435;BME280;21556;55.782;37.528;2023-05-09T11:09:40;100992.31;;;19.28;22.57
35435;BME280;21556;55.782;37.528;2023-05-09T11:12:13;100986.06;;;18.92;22.50
35435;BME280;21556;55.782;37.528;2023-05-09T11:15:03;100984.31;;;19.11;22.17
35435;BME280;21556;55.782;37.528;2023-05-09T11:17:50;100979.00;;;19.11;21.74
35435;BME280;21556;55.782;37.528;2023-05-09T11:20:27;100981.41;;;18.45;22.17
35435;BME280;21556;55.782;37.528;2023-05-09T11:22:56;100979.56;;;18.36;22.61
35435;BME280;21556;55.782;37.528;2023-05-09T11:25:25;100973.44;;;18.51;22.30
35435;BME280;21556;55.782;37.528;2023-05-09T11:27:59;100978.69;;;18.36;23.54
35435;BME280;21556;55.782;37.528;2023-05-09T11:30:37;100976.25;;;18.79;21.83
35435;BME280;21556;55.782;37.528;2023-05-09T11:33:28;100967.47;;;19.07;21.50
35435;BME280;21556;55.782;37.528;2023-05-09T11:36:19;100972.25;;;17.91;22.52
35435;BME280;21556;55.782;37.528;2023-05-09T11:39:10;100978.47;;;17.99;22.88
35435;BME280;21556;55.782;37.528;2023-05-09T11:41:45;100973.25;;;18.10;22.76
35435;BME280;21556;55.782;37.528;2023-05-09T11:44:17;100975.50;;;17.59;23.54
35435;BME280;21556;55.782;37.528;2023-05-09T11:46:45;100976.56;;;17.78;23.74
35435;BME280;21556;55.782;37.528;2023-05-09T11:49:12;100969.47;;;17.78;22.96
35435;BME280;21556;55.782;37.528;2023-05-09T11:51:42;100961.59;;;17.89;22.73
35435;BME280;21556;55.782;37.528;2023-05-09T11:54:08;100958.91;;;17.83;22.80
35435;BME280;21556;55.782;37.528;2023-05-09T11:56:38;100959.91;;;18.03;22.37
35435;BME280;21556;55.782;37.528;2023-05-09T11:59:07;100941.44;;;18.23;22.08
35435;BME280;21556;55.782;37.528;2023-05-09T12:01:35;100946.16;;;17.41;22.62
35435;BME280;21556;55.782;37.528;2023-05-09T12:04:22;100947.22;;;17.64;22.36
35435;BME280;21556;55.782;37.528;2023-05-09T12:07:03;100933.44;;;18.17;21.39
35435;BME280;21556;55.782;37.528;2023-05-09T12:10:13;100923.00;;;18.56;20.63
35435;BME280;21556;55.782;37.528;2023-05-09T12:12:53;100921.19;;;18.55;20.80
35435;BME280;21556;55.782;37.528;2023-05-09T12:15:26;100918.47;;;18.32;21.15
35435;BME280;21556;55.782;37.528;2023-05-09T12:18:24;100913.19;;;18.51;21.30
35435;BME280;21556;55.782;37.528;2023-05-09T12:20:54;100919.75;;;17.56;22.08
35435;BME280;21556;55.782;37.528;2023-05-09T12:23:25;100923.63;;;18.04;21.78
35435;BME280;21556;55.782;37.528;2023-05-09T12:25:56;100920.69;;;17.63;21.56
35435;BME280;21556;55.782;37.528;2023-05-09T12:28:25;100904.97;;;17.93;22.18
35435;BME280;21556;55.782;37.528;2023-05-09T12:30:52;100910.16;;;17.75;22.04
35435;BME280;21556;55.782;37.528;2023-05-09T12:33:19;100905.94;;;18.08;21.54
35435;BME280;21556;55.782;37.528;2023-05-09T12:35:59;100904.00;;;17.79;21.67
35435;BME280;21556;55.782;37.528;2023-05-09T12:38:27;100900.59;;;17.98;22.59
35435;BME280;21556;55.782;37.528;2023-05-09T12:41:04;100900.78;;;18.44;21.83
35435;BME280;21556;55.782;37.528;2023-05-09T12:43:37;100899.94;;;18.55;22.45
35435;BME280;21556;55.782;37.528;2023-05-09T12:46:10;100896.38;;;18.46;21.45
35435;BME280;21556;55.782;37.528;2023-05-09T12:48:37;100898.91;;;18.13;21.79
35435;BME280;21556;55.782;37.528;2023-05-09T12:51:07;100890.06;;;18.12;22.46
35435;BME280;21556;55.782;37.528;2023-05-09T12:53:40;100892.66;;;18.01;22.10
35435;BME280;21556;55.782;37.528;2023-05-09T12:56:16;100890.06;;;18.17;22.48
35435;BME280;21556;55.782;37.528;2023-05-09T12:59:09;100887.41;;;18.17;22.20
35435;BME280;21556;55.782;37.528;2023-05-09T13:02:44;100880.16;;;17.84;22.63